sensor_id;sensor_type;location;lat;lon;timestamp;temperature;humidity
58519;DHT22;44310;48.106;12.008;2023-07-13T00:01:55;22.70;92.50
58519;DHT22;44310;48.106;12.008;2023-07-13T00:04:24;22.70;92.40
58519;DHT22;44310;48.106;12.008;2023-07-13T00:06:53;22.70;92.40
58519;DHT22;44310;48.106;12.008;2023-07-13T00:09:21;22.70;92.30
58519;DHT22;44310;48.106;12.008;2023-07-13T00:11:54;22.70;92.70
58519;DHT22;44310;48.106;12.008;2023-07-13T00:14:23;22.70;92.40
58519;DHT22;44310;48.106;12.008;2023-07-13T00:16:51;22.70;92.40
58519;DHT22;44310;48.106;12.008;2023-07-13T00:19:18;22.70;92.20
58519;DHT22;44310;48.106;12.008;2023-07-13T00:21:45;22.70;92.30
58519;DHT22;44310;48.106;12.008;2023-07-13T00:24:15;22.80;92.80
58519;DHT22;44310;48.106;12.008;2023-07-13T00:26:42;22.80;93.00
58519;DHT22;44310;48.106;12.008;2023-07-13T00:29:13;22.90;93.10
58519;DHT22;44310;48.106;12.008;2023-07-13T00:31:41;22.90;93.10
58519;DHT22;44310;48.106;12.008;2023-07-13T00:34:08;22.90;93.00
58519;DHT22;44310;48.106;12.008;2023-07-13T00:36:35;22.90;93.00
58519;DHT22;44310;48.106;12.008;2023-07-13T00:39:03;22.90;92.90
58519;DHT22;44310;48.106;12.008;2023-07-13T00:41:31;22.90;92.90
58519;DHT22;44310;48.106;12.008;2023-07-13T00:43:59;22.90;92.80
58519;DHT22;44310;48.106;12.008;2023-07-13T00:46:29;22.90;92.80
58519;DHT22;44310;48.106;12.008;2023-07-13T00:49:00;22.90;92.70
58519;DHT22;44310;48.106;12.008;2023-07-13T00:51:32;22.90;92.80
58519;DHT22;44310;48.106;12.008;2023-07-13T00:54:09;22.90;92.70
58519;DHT22;44310;48.106;12.008;2023-07-13T00:56:37;22.80;92.70
58519;DHT22;44310;48.106;12.008;2023-07-13T00:59:07;22.80;92.60
58519;DHT22;44310;48.106;12.008;2023-07-13T01:01:35;22.90;92.60
58519;DHT22;44310;48.106;12.008;2023-07-13T01:04:04;22.90;92.60
58519;DHT22;44310;48.106;12.008;2023-07-13T01:06:36;22.90;92.80
58519;DHT22;44310;48.106;12.008;2023-07-13T01:09:05;22.90;92.50
58519;DHT22;44310;48.106;12.008;2023-07-13T01:11:34;22.90;92.40
58519;DHT22;44310;48.106;12.008;2023-07-13T01:14:02;22.90;92.40
58519;DHT22;44310;48.106;12.008;2023-07-13T01:16:32;22.90;92.40
58519;DHT22;44310;48.106;12.008;2023-07-13T01:19:00;22.90;92.30
58519;DHT22;44310;48.106;12.008;2023-07-13T01:21:29;22.90;92.30
58519;DHT22;44310;48.106;12.008;2023-07-13T01:23:57;22.90;92.30
58519;DHT22;44310;48.106;12.008;2023-07-13T01:26:24;22.90;92.20
58519;DHT22;44310;48.106;12.008;2023-07-13T01:28:52;22.90;92.30
58519;DHT22;44310;48.106;12.008;2023-07-13T01:31:19;22.90;92.50
58519;DHT22;44310;48.106;12.008;2023-07-13T01:33:46;23.20;92.80
58519;DHT22;44310;48.106;12.008;2023-07-13T01:36:13;22.90;92.60
58519;DHT22;44310;48.106;12.008;2023-07-13T01:38:40;22.90;92.50
58519;DHT22;44310;48.106;12.008;2023-07-13T01:41:11;23.00;92.30
58519;DHT22;44310;48.106;12.008;2023-07-13T01:43:38;22.80;92.70
58519;DHT22;44310;48.106;12.008;2023-07-13T01:46:05;22.80;92.60
58519;DHT22;44310;48.106;12.008;2023-07-13T01:48:48;23.10;92.90
58519;DHT22;44310;48.106;12.008;2023-07-13T01:51:18;22.80;92.50
58519;DHT22;44310;48.106;12.008;2023-07-13T01:53:45;22.90;92.50
58519;DHT22;44310;48.106;12.008;2023-07-13T01:56:12;22.80;92.40
58519;DHT22;44310;48.106;12.008;2023-07-13T01:58:40;22.80;92.40
58519;DHT22;44310;48.106;12.008;2023-07-13T02:01:07;22.80;92.40
58519;DHT22;44310;48.106;12.008;2023-07-13T02:03:34;22.90;92.60
58519;DHT22;44310;48.106;12.008;2023-07-13T02:06:01;22.90;92.80
58519;DHT22;44310;48.106;12.008;2023-07-13T02:08:29;22.90;92.80
58519;DHT22;44310;48.106;12.008;2023-07-13T02:10:56;22.90;93.00
58519;DHT22;44310;48.106;12.008;2023-07-13T02:13:23;22.90;93.00
58519;DHT22;44310;48.106;12.008;2023-07-13T02:15:51;22.60;92.90
58519;DHT22;44310;48.106;12.008;2023-07-13T02:18:19;22.70;92.80
58519;DHT22;44310;48.106;12.008;2023-07-13T02:20:46;22.90;92.70
58519;DHT22;44310;48.106;12.008;2023-07-13T02:23:13;22.80;92.60
58519;DHT22;44310;48.106;12.008;2023-07-13T02:25:40;22.90;92.50
58519;DHT22;44310;48.106;12.008;2023-07-13T02:28:08;22.80;92.70
58519;DHT22;44310;48.106;12.008;2023-07-13T02:30:35;22.70;92.40
58519;DHT22;44310;48.106;12.008;2023-07-13T02:33:02;22.70;92.40
58519;DHT22;44310;48.106;12.008;2023-07-13T02:35:30;22.80;92.40
58519;DHT22;44310;48.106;12.008;2023-07-13T02:37:57;22.70;92.40
58519;DHT22;44310;48.106;12.008;2023-07-13T02:40:24;22.70;92.30
58519;DHT22;44310;48.106;12.008;2023-07-13T02:42:52;22.70;92.30
58519;DHT22;44310;48.106;12.008;2023-07-13T02:45:19;22.80;92.40
58519;DHT22;44310;48.106;12.008;2023-07-13T02:47:46;22.80;92.30
58519;DHT22;44310;48.106;12.008;2023-07-13T02:50:14;22.80;92.30
58519;DHT22;44310;48.106;12.008;2023-07-13T02:52:41;22.80;92.60
58519;DHT22;44310;48.106;12.008;2023-07-13T02:55:08;22.80;92.20
58519;DHT22;44310;48.106;12.008;2023-07-13T02:57:35;22.80;92.40
58519;DHT22;44310;48.106;12.008;2023-07-13T03:00:03;22.80;92.50
58519;DHT22;44310;48.106;12.008;2023-07-13T03:02:34;22.90;92.50
58519;DHT22;44310;48.106;12.008;2023-07-13T03:05:01;22.90;92.50
58519;DHT22;44310;48.106;12.008;2023-07-13T03:07:30;22.90;92.60
58519;DHT22;44310;48.106;12.008;2023-07-13T03:09:58;22.90;92.80
58519;DHT22;44310;48.106;12.008;2023-07-13T03:12:25;22.90;92.70
58519;DHT22;44310;48.106;12.008;2023-07-13T03:14:53;22.90;92.70
58519;DHT22;44310;48.106;12.008;2023-07-13T03:17:20;22.90;92.70
58519;DHT22;44310;48.106;12.008;2023-07-13T03:19:47;22.90;92.50
58519;DHT22;44310;48.106;12.008;2023-07-13T03:22:18;22.80;92.60
58519;DHT22;44310;48.106;12.008;2023-07-13T03:24:46;22.90;92.70
58519;DHT22;44310;48.106;12.008;2023-07-13T03:27:13;22.90;92.80
58519;DHT22;44310;48.106;12.008;2023-07-13T03:29:40;22.90;92.80
58519;DHT22;44310;48.106;12.008;2023-07-13T03:32:08;22.90;92.70
58519;DHT22;44310;48.106;12.008;2023-07-13T03:34:35;22.60;92.60
58519;DHT22;44310;48.106;12.008;2023-07-13T03:37:02;22.90;92.70
58519;DHT22;44310;48.106;12.008;2023-07-13T03:39:29;22.80;92.60
58519;DHT22;44310;48.106;12.008;2023-07-13T03:41:56;22.80;92.50
58519;DHT22;44310;48.106;12.008;2023-07-13T03:44:24;22.80;92.50
58519;DHT22;44310;48.106;12.008;2023-07-13T03:46:51;22.80;92.50
58519;DHT22;44310;48.106;12.008;2023-07-13T03:49:18;22.80;92.50
58519;DHT22;44310;48.106;12.008;2023-07-13T03:51:45;22.80;92.40
58519;DHT22;44310;48.106;12.008;2023-07-13T03:54:13;22.70;92.40
58519;DHT22;44310;48.106;12.008;2023-07-13T03:56:40;22.70;92.40
58519;DHT22;44310;48.106;12.008;2023-07-13T03:59:07;22.70;92.40
58519;DHT22;44310;48.106;12.008;2023-07-13T04:01:34;22.70;92.30
58519;DHT22;44310;48.106;12.008;2023-07-13T04:04:02;22.70;92.30
58519;DHT22;44310;48.106;12.008;2023-07-13T04:06:30;22.80;92.50
58519;DHT22;44310;48.106;12.008;2023-07-13T04:09:00;22.80;92.70
58519;DHT22;44310;48.106;12.008;2023-07-13T04:11:30;22.80;92.60
58519;DHT22;44310;48.106;12.008;2023-07-13T04:13:58;22.80;92.60
58519;DHT22;44310;48.106;12.008;2023-07-13T04:16:26;22.80;92.60
58519;DHT22;44310;48.106;12.008;2023-07-13T04:18:53;22.90;92.60
58519;DHT22;44310;48.106;12.008;2023-07-13T04:21:22;22.80;92.40
58519;DHT22;44310;48.106;12.008;2023-07-13T04:23:49;22.80;92.40
58519;DHT22;44310;48.106;12.008;2023-07-13T04:26:16;22.80;92.40
58519;DHT22;44310;48.106;12.008;2023-07-13T04:28:43;22.80;92.40
58519;DHT22;44310;48.106;12.008;2023-07-13T04:31:11;22.80;92.40
58519;DHT22;44310;48.106;12.008;2023-07-13T04:33:38;22.80;92.40
58519;DHT22;44310;48.106;12.008;2023-07-13T04:36:05;22.80;92.40
58519;DHT22;44310;48.106;12.008;2023-07-13T04:38:33;22.80;92.30
58519;DHT22;44310;48.106;12.008;2023-07-13T04:41:04;22.80;92.30
58519;DHT22;44310;48.106;12.008;2023-07-13T04:43:32;22.80;92.30
58519;DHT22;44310;48.106;12.008;2023-07-13T04:46:10;22.80;92.30
58519;DHT22;44310;48.106;12.008;2023-07-13T04:48:38;22.80;92.20
58519;DHT22;44310;48.106;12.008;2023-07-13T04:51:06;22.80;92.20
58519;DHT22;44310;48.106;12.008;2023-07-13T04:53:33;22.70;92.10
58519;DHT22;44310;48.106;12.008;2023-07-13T04:56:02;22.80;92.10
58519;DHT22;44310;48.106;12.008;2023-07-13T04:58:30;22.80;92.20
58519;DHT22;44310;48.106;12.008;2023-07-13T05:01:02;22.80;92.10
58519;DHT22;44310;48.106;12.008;2023-07-13T05:03:29;22.80;92.30
58519;DHT22;44310;48.106;12.008;2023-07-13T05:05:59;22.80;92.30
58519;DHT22;44310;48.106;12.008;2023-07-13T05:08:26;22.90;92.50
58519;DHT22;44310;48.106;12.008;2023-07-13T05:10:54;22.90;92.50
58519;DHT22;44310;48.106;12.008;2023-07-13T05:13:22;22.90;92.60
58519;DHT22;44310;48.106;12.008;2023-07-13T05:16:00;22.90;92.60
58519;DHT22;44310;48.106;12.008;2023-07-13T05:18:28;22.90;92.40
58519;DHT22;44310;48.106;12.008;2023-07-13T05:21:01;22.90;92.40
58519;DHT22;44310;48.106;12.008;2023-07-13T05:23:30;22.90;92.40
58519;DHT22;44310;48.106;12.008;2023-07-13T05:25:58;22.90;92.30
58519;DHT22;44310;48.106;12.008;2023-07-13T05:28:25;22.90;92.30
58519;DHT22;44310;48.106;12.008;2023-07-13T05:30:54;22.80;92.50
58519;DHT22;44310;48.106;12.008;2023-07-13T05:33:22;22.90;92.20
58519;DHT22;44310;48.106;12.008;2023-07-13T05:35:50;22.80;92.40
58519;DHT22;44310;48.106;12.008;2023-07-13T05:38:17;22.80;92.10
58519;DHT22;44310;48.106;12.008;2023-07-13T05:40:46;22.80;92.00
58519;DHT22;44310;48.106;12.008;2023-07-13T05:43:13;22.80;92.00
58519;DHT22;44310;48.106;12.008;2023-07-13T05:45:41;23.40;92.10
58519;DHT22;44310;48.106;12.008;2023-07-13T05:48:08;22.80;91.90
58519;DHT22;44310;48.106;12.008;2023-07-13T05:50:36;22.80;91.80
58519;DHT22;44310;48.106;12.008;2023-07-13T05:53:03;22.80;91.80
58519;DHT22;44310;48.106;12.008;2023-07-13T05:55:31;22.80;91.80
58519;DHT22;44310;48.106;12.008;2023-07-13T05:57:59;22.80;91.80
58519;DHT22;44310;48.106;12.008;2023-07-13T06:00:27;22.80;91.80
58519;DHT22;44310;48.106;12.008;2023-07-13T06:02:56;22.80;91.70
58519;DHT22;44310;48.106;12.008;2023-07-13T06:05:23;22.80;91.60
58519;DHT22;44310;48.106;12.008;2023-07-13T06:07:51;22.70;91.20
58519;DHT22;44310;48.106;12.008;2023-07-13T06:10:18;22.20;91.10
58519;DHT22;44310;48.106;12.008;2023-07-13T06:12:45;22.70;91.20
58519;DHT22;44310;48.106;12.008;2023-07-13T06:15:13;22.40;90.60
58519;DHT22;44310;48.106;12.008;2023-07-13T06:17:44;22.50;90.30
58519;DHT22;44310;48.106;12.008;2023-07-13T06:20:12;22.50;90.70
58519;DHT22;44310;48.106;12.008;2023-07-13T06:22:39;22.50;90.90
58519;DHT22;44310;48.106;12.008;2023-07-13T06:25:07;22.40;90.90
58519;DHT22;44310;48.106;12.008;2023-07-13T06:27:34;22.40;89.70
58519;DHT22;44310;48.106;12.008;2023-07-13T06:30:01;22.20;88.20
58519;DHT22;44310;48.106;12.008;2023-07-13T06:32:29;21.80;88.20
58519;DHT22;44310;48.106;12.008;2023-07-13T06:34:56;21.70;89.50
58519;DHT22;44310;48.106;12.008;2023-07-13T06:37:23;21.70;90.10
58519;DHT22;44310;48.106;12.008;2023-07-13T06:39:50;21.80;90.30
58519;DHT22;44310;48.106;12.008;2023-07-13T06:42:17;21.70;90.30
58519;DHT22;44310;48.106;12.008;2023-07-13T06:44:44;21.80;90.40
58519;DHT22;44310;48.106;12.008;2023-07-13T06:47:12;21.80;90.60
58519;DHT22;44310;48.106;12.008;2023-07-13T06:49:39;21.80;90.70
58519;DHT22;44310;48.106;12.008;2023-07-13T06:52:06;21.80;90.80
58519;DHT22;44310;48.106;12.008;2023-07-13T06:54:33;21.90;90.70
58519;DHT22;44310;48.106;12.008;2023-07-13T06:57:02;21.80;90.40
58519;DHT22;44310;48.106;12.008;2023-07-13T06:59:29;21.80;90.30
58519;DHT22;44310;48.106;12.008;2023-07-13T07:01:56;21.70;90.50
58519;DHT22;44310;48.106;12.008;2023-07-13T07:04:23;21.70;90.60
58519;DHT22;44310;48.106;12.008;2023-07-13T07:06:50;21.70;90.70
58519;DHT22;44310;48.106;12.008;2023-07-13T07:09:17;21.70;90.80
58519;DHT22;44310;48.106;12.008;2023-07-13T07:11:44;21.70;90.80
58519;DHT22;44310;48.106;12.008;2023-07-13T07:14:29;21.80;90.80
58519;DHT22;44310;48.106;12.008;2023-07-13T07:16:56;21.70;90.50
58519;DHT22;44310;48.106;12.008;2023-07-13T07:19:25;21.60;90.50
58519;DHT22;44310;48.106;12.008;2023-07-13T07:21:53;21.70;90.70
58519;DHT22;44310;48.106;12.008;2023-07-13T07:24:20;21.70;90.90
58519;DHT22;44310;48.106;12.008;2023-07-13T07:26:47;21.70;90.90
58519;DHT22;44310;48.106;12.008;2023-07-13T07:29:17;21.70;90.90
58519;DHT22;44310;48.106;12.008;2023-07-13T07:31:47;21.80;91.10
58519;DHT22;44310;48.106;12.008;2023-07-13T07:34:30;21.60;91.00
58519;DHT22;44310;48.106;12.008;2023-07-13T07:37:02;21.70;91.10
58519;DHT22;44310;48.106;12.008;2023-07-13T07:39:32;21.70;91.00
58519;DHT22;44310;48.106;12.008;2023-07-13T07:41:59;21.60;90.90
58519;DHT22;44310;48.106;12.008;2023-07-13T07:44:26;21.60;91.00
58519;DHT22;44310;48.106;12.008;2023-07-13T07:46:55;21.70;91.30
58519;DHT22;44310;48.106;12.008;2023-07-13T07:49:22;21.60;91.10
58519;DHT22;44310;48.106;12.008;2023-07-13T07:51:49;21.70;91.20
58519;DHT22;44310;48.106;12.008;2023-07-13T07:54:17;21.70;91.40
58519;DHT22;44310;48.106;12.008;2023-07-13T07:57:04;21.70;91.10
58519;DHT22;44310;48.106;12.008;2023-07-13T07:59:36;21.70;91.30
58519;DHT22;44310;48.106;12.008;2023-07-13T08:02:08;21.70;91.30
58519;DHT22;44310;48.106;12.008;2023-07-13T08:04:55;21.70;91.60
58519;DHT22;44310;48.106;12.008;2023-07-13T08:07:25;21.70;91.10
58519;DHT22;44310;48.106;12.008;2023-07-13T08:09:53;21.70;91.10
58519;DHT22;44310;48.106;12.008;2023-07-13T08:12:20;21.70;90.90
58519;DHT22;44310;48.106;12.008;2023-07-13T08:14:51;21.60;91.10
58519;DHT22;44310;48.106;12.008;2023-07-13T08:17:21;21.60;91.00
58519;DHT22;44310;48.106;12.008;2023-07-13T08:19:48;21.70;91.30
58519;DHT22;44310;48.106;12.008;2023-07-13T08:22:15;21.70;91.20
58519;DHT22;44310;48.106;12.008;2023-07-13T08:24:42;21.70;91.50
58519;DHT22;44310;48.106;12.008;2023-07-13T08:27:11;21.80;91.00
58519;DHT22;44310;48.106;12.008;2023-07-13T08:29:39;21.80;90.80
58519;DHT22;44310;48.106;12.008;2023-07-13T08:32:07;21.90;91.00
58519;DHT22;44310;48.106;12.008;2023-07-13T08:34:38;21.90;90.90
58519;DHT22;44310;48.106;12.008;2023-07-13T08:37:06;22.00;91.40
58519;DHT22;44310;48.106;12.008;2023-07-13T08:39:33;22.10;91.70
58519;DHT22;44310;48.106;12.008;2023-07-13T08:44:53;22.30;92.00
58519;DHT22;44310;48.106;12.008;2023-07-13T08:47:23;22.40;92.10
58519;DHT22;44310;48.106;12.008;2023-07-13T08:49:50;22.60;92.10
58519;DHT22;44310;48.106;12.008;2023-07-13T08:52:31;22.60;92.20
58519;DHT22;44310;48.106;12.008;2023-07-13T08:55:14;22.60;92.30
58519;DHT22;44310;48.106;12.008;2023-07-13T08:57:45;22.70;92.50
58519;DHT22;44310;48.106;12.008;2023-07-13T09:00:13;22.70;92.40
58519;DHT22;44310;48.106;12.008;2023-07-13T09:02:45;22.70;92.40
58519;DHT22;44310;48.106;12.008;2023-07-13T09:05:17;22.70;92.30
58519;DHT22;44310;48.106;12.008;2023-07-13T09:07:53;22.70;92.20
58519;DHT22;44310;48.106;12.008;2023-07-13T09:10:53;22.70;92.20
58519;DHT22;44310;48.106;12.008;2023-07-13T09:13:29;22.80;92.20
58519;DHT22;44310;48.106;12.008;2023-07-13T09:16:00;22.70;92.10
58519;DHT22;44310;48.106;12.008;2023-07-13T09:21:34;22.70;92.20
58519;DHT22;44310;48.106;12.008;2023-07-13T09:24:33;22.70;92.10
58519;DHT22;44310;48.106;12.008;2023-07-13T09:27:08;22.70;92.10
58519;DHT22;44310;48.106;12.008;2023-07-13T09:29:37;22.70;92.10
58519;DHT22;44310;48.106;12.008;2023-07-13T09:32:07;22.70;92.10
58519;DHT22;44310;48.106;12.008;2023-07-13T09:34:37;22.70;92.10
58519;DHT22;44310;48.106;12.008;2023-07-13T09:37:04;22.70;92.10
58519;DHT22;44310;48.106;12.008;2023-07-13T09:39:39;22.70;92.10
58519;DHT22;44310;48.106;12.008;2023-07-13T09:42:18;22.70;92.10
58519;DHT22;44310;48.106;12.008;2023-07-13T09:44:56;22.70;92.00
58519;DHT22;44310;48.106;12.008;2023-07-13T09:47:28;22.70;92.00
58519;DHT22;44310;48.106;12.008;2023-07-13T09:50:01;22.70;92.00
58519;DHT22;44310;48.106;12.008;2023-07-13T09:52:41;22.70;92.00
58519;DHT22;44310;48.106;12.008;2023-07-13T09:55:39;22.70;91.90
58519;DHT22;44310;48.106;12.008;2023-07-13T09:58:16;22.60;91.70
58519;DHT22;44310;48.106;12.008;2023-07-13T10:01:00;22.60;91.60
58519;DHT22;44310;48.106;12.008;2023-07-13T10:03:34;22.60;91.60
58519;DHT22;44310;48.106;12.008;2023-07-13T10:06:17;22.60;91.70
58519;DHT22;44310;48.106;12.008;2023-07-13T10:08:46;22.60;91.70
58519;DHT22;44310;48.106;12.008;2023-07-13T10:11:26;22.60;91.50
58519;DHT22;44310;48.106;12.008;2023-07-13T10:14:00;22.60;91.50
58519;DHT22;44310;48.106;12.008;2023-07-13T10:16:31;22.60;91.40
58519;DHT22;44310;48.106;12.008;2023-07-13T10:21:41;22.60;91.30
58519;DHT22;44310;48.106;12.008;2023-07-13T10:24:17;22.70;91.60
58519;DHT22;44310;48.106;12.008;2023-07-13T10:29:27;22.60;91.00
58519;DHT22;44310;48.106;12.008;2023-07-13T10:31:55;22.60;91.00
58519;DHT22;44310;48.106;12.008;2023-07-13T10:34:25;22.60;90.90
58519;DHT22;44310;48.106;12.008;2023-07-13T10:36:52;22.60;90.90
58519;DHT22;44310;48.106;12.008;2023-07-13T10:39:22;22.60;90.80
58519;DHT22;44310;48.106;12.008;2023-07-13T10:41:55;22.70;90.90
58519;DHT22;44310;48.106;12.008;2023-07-13T10:44:28;22.70;91.00
58519;DHT22;44310;48.106;12.008;2023-07-13T10:46:58;22.60;91.00
58519;DHT22;44310;48.106;12.008;2023-07-13T10:49:28;22.70;91.00
58519;DHT22;44310;48.106;12.008;2023-07-13T10:51:56;22.70;91.00
58519;DHT22;44310;48.106;12.008;2023-07-13T10:54:31;22.70;91.00
58519;DHT22;44310;48.106;12.008;2023-07-13T10:57:18;22.70;90.90
58519;DHT22;44310;48.106;12.008;2023-07-13T11:02:31;22.70;90.80
58519;DHT22;44310;48.106;12.008;2023-07-13T11:04:58;22.70;90.80
58519;DHT22;44310;48.106;12.008;2023-07-13T11:07:28;22.70;90.70
58519;DHT22;44310;48.106;12.008;2023-07-13T11:10:03;22.70;90.70
58519;DHT22;44310;48.106;12.008;2023-07-13T11:12:52;22.70;90.60
58519;DHT22;44310;48.106;12.008;2023-07-13T11:15:53;22.70;90.60
58519;DHT22;44310;48.106;12.008;2023-07-13T11:18:22;22.70;90.50
58519;DHT22;44310;48.106;12.008;2023-07-13T11:20:49;22.70;90.40
58519;DHT22;44310;48.106;12.008;2023-07-13T11:23:26;22.70;90.30
58519;DHT22;44310;48.106;12.008;2023-07-13T11:25:53;22.70;90.30
58519;DHT22;44310;48.106;12.008;2023-07-13T11:28:25;22.70;90.20
58519;DHT22;44310;48.106;12.008;2023-07-13T11:33:49;23.10;90.10
58519;DHT22;44310;48.106;12.008;2023-07-13T11:36:18;22.70;90.00
58519;DHT22;44310;48.106;12.008;2023-07-13T11:38:56;22.60;89.90
58519;DHT22;44310;48.106;12.008;2023-07-13T11:41:31;22.70;89.80
58519;DHT22;44310;48.106;12.008;2023-07-13T11:44:16;22.70;89.50
58519;DHT22;44310;48.106;12.008;2023-07-13T11:46:54;22.70;89.30
58519;DHT22;44310;48.106;12.008;2023-07-13T11:49:26;22.70;89.20
58519;DHT22;44310;48.106;12.008;2023-07-13T11:51:54;22.80;89.10
58519;DHT22;44310;48.106;12.008;2023-07-13T11:54:34;22.70;88.90
58519;DHT22;44310;48.106;12.008;2023-07-13T12:00:10;22.70;88.90
58519;DHT22;44310;48.106;12.008;2023-07-13T12:02:42;22.70;89.00
58519;DHT22;44310;48.106;12.008;2023-07-13T12:05:12;22.80;88.80
58519;DHT22;44310;48.106;12.008;2023-07-13T12:07:41;22.80;88.70
58519;DHT22;44310;48.106;12.008;2023-07-13T12:10:18;22.70;88.40
58519;DHT22;44310;48.106;12.008;2023-07-13T12:12:57;22.70;87.70
58519;DHT22;44310;48.106;12.008;2023-07-13T12:15:35;22.70;87.50
58519;DHT22;44310;48.106;12.008;2023-07-13T12:18:12;22.70;87.80
58519;DHT22;44310;48.106;12.008;2023-07-13T12:20:40;22.60;88.20
58519;DHT22;44310;48.106;12.008;2023-07-13T12:23:31;22.80;88.10
58519;DHT22;44310;48.106;12.008;2023-07-13T12:26:02;22.80;88.20
58519;DHT22;44310;48.106;12.008;2023-07-13T12:28:40;22.80;88.10
58519;DHT22;44310;48.106;12.008;2023-07-13T12:34:09;22.80;88.80
58519;DHT22;44310;48.106;12.008;2023-07-13T12:36:45;22.80;88.50
58519;DHT22;44310;48.106;12.008;2023-07-13T12:39:34;22.80;88.50
58519;DHT22;44310;48.106;12.008;2023-07-13T12:42:24;22.90;88.50
58519;DHT22;44310;48.106;12.008;2023-07-13T12:45:16;22.90;88.20
58519;DHT22;44310;48.106;12.008;2023-07-13T12:47:49;22.80;88.30
58519;DHT22;44310;48.106;12.008;2023-07-13T12:50:19;22.90;88.10
58519;DHT22;44310;48.106;12.008;2023-07-13T12:52:54;22.80;88.00
58519;DHT22;44310;48.106;12.008;2023-07-13T12:55:23;22.80;87.90
58519;DHT22;44310;48.106;12.008;2023-07-13T12:57:53;22.80;87.70
58519;DHT22;44310;48.106;12.008;2023-07-13T13:00:31;22.80;87.60
58519;DHT22;44310;48.106;12.008;2023-07-13T13:03:24;22.80;87.60
58519;DHT22;44310;48.106;12.008;2023-07-13T13:06:29;22.80;87.40
58519;DHT22;44310;48.106;12.008;2023-07-13T13:08:57;22.30;86.90
58519;DHT22;44310;48.106;12.008;2023-07-13T13:11:29;22.90;87.20
58519;DHT22;44310;48.106;12.008;2023-07-13T13:13:57;22.90;87.00
58519;DHT22;44310;48.106;12.008;2023-07-13T13:16:32;22.90;86.60
58519;DHT22;44310;48.106;12.008;2023-07-13T13:19:14;22.90;86.70
58519;DHT22;44310;48.106;12.008;2023-07-13T13:21:44;22.90;86.70
58519;DHT22;44310;48.106;12.008;2023-07-13T13:24:17;22.90;86.30
58519;DHT22;44310;48.106;12.008;2023-07-13T13:26:44;22.90;86.20
58519;DHT22;44310;48.106;12.008;2023-07-13T13:29:17;22.80;85.90
58519;DHT22;44310;48.106;12.008;2023-07-13T13:31:45;22.90;85.50
58519;DHT22;44310;48.106;12.008;2023-07-13T13:34:14;22.90;86.00
58519;DHT22;44310;48.106;12.008;2023-07-13T13:36:43;22.90;86.00
58519;DHT22;44310;48.106;12.008;2023-07-13T13:41:52;22.90;85.40
58519;DHT22;44310;48.106;12.008;2023-07-13T13:44:21;22.90;84.50
58519;DHT22;44310;48.106;12.008;2023-07-13T13:46:53;22.90;84.40
58519;DHT22;44310;48.106;12.008;2023-07-13T13:49:25;22.90;84.30
58519;DHT22;44310;48.106;12.008;2023-07-13T13:51:54;23.00;84.80
58519;DHT22;44310;48.106;12.008;2023-07-13T13:54:22;23.00;84.60
58519;DHT22;44310;48.106;12.008;2023-07-13T13:56:51;23.00;83.60
58519;DHT22;44310;48.106;12.008;2023-07-13T13:59:19;23.00;83.40
58519;DHT22;44310;48.106;12.008;2023-07-13T14:01:47;22.90;82.10
58519;DHT22;44310;48.106;12.008;2023-07-13T14:04:18;22.90;83.00
58519;DHT22;44310;48.106;12.008;2023-07-13T14:06:47;22.90;83.10
58519;DHT22;44310;48.106;12.008;2023-07-13T14:09:16;22.90;83.60
58519;DHT22;44310;48.106;12.008;2023-07-13T14:11:46;23.00;84.00
58519;DHT22;44310;48.106;12.008;2023-07-13T14:14:24;23.00;83.90
58519;DHT22;44310;48.106;12.008;2023-07-13T14:16:52;23.00;83.90
58519;DHT22;44310;48.106;12.008;2023-07-13T14:19:23;23.00;83.80
58519;DHT22;44310;48.106;12.008;2023-07-13T14:21:51;23.00;84.00
58519;DHT22;44310;48.106;12.008;2023-07-13T14:24:21;23.00;84.20
58519;DHT22;44310;48.106;12.008;2023-07-13T14:26:48;23.00;84.40
58519;DHT22;44310;48.106;12.008;2023-07-13T14:29:18;23.00;84.50
58519;DHT22;44310;48.106;12.008;2023-07-13T14:31:50;23.00;84.40
58519;DHT22;44310;48.106;12.008;2023-07-13T14:34:17;23.00;84.40
58519;DHT22;44310;48.106;12.008;2023-07-13T14:36:47;23.00;84.40
58519;DHT22;44310;48.106;12.008;2023-07-13T14:39:21;23.00;84.50
58519;DHT22;44310;48.106;12.008;2023-07-13T14:41:55;22.90;84.50
58519;DHT22;44310;48.106;12.008;2023-07-13T14:44:27;22.90;84.40
58519;DHT22;44310;48.106;12.008;2023-07-13T14:46:58;22.90;84.50
58519;DHT22;44310;48.106;12.008;2023-07-13T14:49:30;23.00;84.60
58519;DHT22;44310;48.106;12.008;2023-07-13T14:52:01;22.90;84.30
58519;DHT22;44310;48.106;12.008;2023-07-13T14:54:28;23.30;84.60
58519;DHT22;44310;48.106;12.008;2023-07-13T14:56:56;22.90;84.30
58519;DHT22;44310;48.106;12.008;2023-07-13T14:59:25;22.90;84.40
58519;DHT22;44310;48.106;12.008;2023-07-13T15:01:52;22.90;84.50
58519;DHT22;44310;48.106;12.008;2023-07-13T15:04:19;22.90;84.50
58519;DHT22;44310;48.106;12.008;2023-07-13T15:06:58;22.90;84.50
58519;DHT22;44310;48.106;12.008;2023-07-13T15:09:26;22.90;84.50
58519;DHT22;44310;48.106;12.008;2023-07-13T15:11:56;22.90;84.50
58519;DHT22;44310;48.106;12.008;2023-07-13T15:14:24;22.90;84.30
58519;DHT22;44310;48.106;12.008;2023-07-13T15:16:54;22.90;84.50
58519;DHT22;44310;48.106;12.008;2023-07-13T15:19:23;23.10;84.60
58519;DHT22;44310;48.106;12.008;2023-07-13T15:21:50;23.00;84.40
58519;DHT22;44310;48.106;12.008;2023-07-13T15:24:19;22.90;83.90
58519;DHT22;44310;48.106;12.008;2023-07-13T15:26:47;22.80;81.50
58519;DHT22;44310;48.106;12.008;2023-07-13T15:29:16;22.70;79.60
58519;DHT22;44310;48.106;12.008;2023-07-13T15:31:44;22.70;79.30
58519;DHT22;44310;48.106;12.008;2023-07-13T15:34:15;22.70;79.40
58519;DHT22;44310;48.106;12.008;2023-07-13T15:36:43;22.60;80.40
58519;DHT22;44310;48.106;12.008;2023-07-13T15:39:15;22.70;80.80
58519;DHT22;44310;48.106;12.008;2023-07-13T15:41:46;22.70;81.20
58519;DHT22;44310;48.106;12.008;2023-07-13T15:44:31;22.80;81.70
58519;DHT22;44310;48.106;12.008;2023-07-13T15:46:59;22.80;81.80
58519;DHT22;44310;48.106;12.008;2023-07-13T15:49:28;22.80;81.90
58519;DHT22;44310;48.106;12.008;2023-07-13T15:51:55;22.90;82.80
58519;DHT22;44310;48.106;12.008;2023-07-13T15:54:23;22.80;81.90
58519;DHT22;44310;48.106;12.008;2023-07-13T15:56:55;22.90;81.80
58519;DHT22;44310;48.106;12.008;2023-07-13T15:59:23;22.90;82.10
58519;DHT22;44310;48.106;12.008;2023-07-13T16:01:50;22.90;82.10